createdAt,value
2022-10-13T00:00:02.997Z,22.9
2022-10-13T00:05:01.538Z,22.6
2022-10-13T00:15:03.204Z,22.8
2022-10-13T00:20:01.630Z,21.7
2022-10-13T00:25:01.750Z,21.8
2022-10-13T00:30:02.830Z,22.9
2022-10-13T00:35:01.687Z,22.5
2022-10-13T00:40:01.728Z,22.6
2022-10-13T00:45:06.407Z,22.4
2022-10-13T00:50:01.614Z,23.1
2022-10-13T00:55:01.855Z,22.8
2022-10-13T01:00:03.644Z,22.4
2022-10-13T01:05:01.649Z,22.4
2022-10-13T01:10:01.614Z,23.2
2022-10-13T01:15:08.988Z,22.1
2022-10-13T01:20:01.607Z,22.1
2022-10-13T01:25:01.693Z,22.0
2022-10-13T01:30:11.923Z,21.6
2022-10-13T01:35:01.621Z,21.6
2022-10-13T01:40:01.621Z,22.8
2022-10-13T01:45:03.090Z,22.9
2022-10-13T01:50:01.679Z,23.2
2022-10-13T01:55:01.612Z,23.6
2022-10-13T02:00:05.613Z,23.4
2022-10-13T02:05:01.737Z,23.0
2022-10-13T02:10:01.675Z,23.0
2022-10-13T02:15:03.036Z,23.3
2022-10-13T02:25:01.649Z,23.1
2022-10-13T02:30:02.808Z,23.0
2022-10-13T02:35:01.612Z,22.0
2022-10-13T02:40:01.704Z,21.1
2022-10-13T02:45:02.398Z,21.5
2022-10-13T02:50:01.618Z,21.2
2022-10-13T02:55:01.706Z,20.9
2022-10-13T03:00:03.346Z,22.0
2022-10-13T03:05:01.601Z,22.2
2022-10-13T03:10:01.750Z,22.3
2022-10-13T03:15:02.471Z,22.6
2022-10-13T03:20:01.583Z,23.3
2022-10-13T03:25:01.657Z,23.8
2022-10-13T03:30:03.006Z,23.9
2022-10-13T03:35:01.611Z,24.2
2022-10-13T03:40:01.629Z,24.2
2022-10-13T03:45:02.923Z,24.7
2022-10-13T03:50:01.671Z,23.9
2022-10-13T03:55:01.643Z,25.1
2022-10-13T04:00:02.963Z,25.2
2022-10-13T04:05:01.634Z,25.8
2022-10-13T04:10:01.629Z,26.1
2022-10-13T04:15:02.236Z,27.4
2022-10-13T04:20:01.615Z,27.7
2022-10-13T04:25:01.667Z,28.4
2022-10-13T04:30:03.060Z,28.6
2022-10-13T04:35:01.617Z,27.8
2022-10-13T04:40:01.630Z,27.5
2022-10-13T04:45:02.404Z,26.8
2022-10-13T04:50:01.692Z,26.2
2022-10-13T04:55:01.620Z,26.5
2022-10-13T05:00:03.389Z,26.7
2022-10-13T05:05:01.660Z,27.0
2022-10-13T05:10:01.674Z,27.6
2022-10-13T05:15:02.354Z,27.2
2022-10-13T05:20:01.491Z,26.6
2022-10-13T05:25:01.429Z,27.4
2022-10-13T05:30:02.393Z,26.7
2022-10-13T05:35:01.828Z,27.3
2022-10-13T05:40:01.300Z,27.1
2022-10-13T05:45:02.422Z,27.4
2022-10-13T05:55:01.764Z,28.0
2022-10-13T06:00:07.118Z,27.3
2022-10-13T06:05:01.637Z,28.1
2022-10-13T06:10:01.844Z,28.0
2022-10-13T06:15:02.569Z,26.8
2022-10-13T06:20:01.375Z,26.6
2022-10-13T06:30:02.851Z,27.1
2022-10-13T06:35:01.742Z,27.4
2022-10-13T06:40:01.195Z,29.0
2022-10-13T06:45:01.989Z,29.9
2022-10-13T06:50:02.340Z,30.2
2022-10-13T06:55:01.653Z,30.5
2022-10-13T07:00:03.397Z,30.6
2022-10-13T07:10:01.636Z,29.5
2022-10-13T07:15:02.786Z,29.7
2022-10-13T07:20:08.416Z,29.6
2022-10-13T07:25:01.111Z,29.0
2022-10-13T07:30:01.964Z,28.6
2022-10-13T07:35:01.592Z,29.1
2022-10-13T07:40:01.610Z,28.7
2022-10-13T07:45:02.077Z,28.3
2022-10-13T07:50:01.482Z,28.6
2022-10-13T07:55:01.770Z,28.6
2022-10-13T08:00:03.229Z,28.9
2022-10-13T08:05:01.684Z,29.0
2022-10-13T08:10:01.677Z,28.8
2022-10-13T08:15:07.706Z,28.7
2022-10-13T08:20:03.324Z,28.4
2022-10-13T08:30:02.825Z,27.6
2022-10-13T08:35:01.877Z,28.0
2022-10-13T08:40:01.675Z,27.6
2022-10-13T09:10:02.840Z,25.6
2022-10-13T09:15:05.945Z,27.5
2022-10-13T09:20:01.623Z,27.8
2022-10-13T09:25:14.563Z,27.3
2022-10-13T09:30:17.283Z,26.8
2022-10-13T09:35:01.609Z,27.1
2022-10-13T09:40:01.544Z,26.1
2022-10-13T09:45:17.605Z,25.6
2022-10-13T09:50:07.565Z,26.2
2022-10-13T09:55:01.375Z,26.3
2022-10-13T10:00:08.756Z,25.4
2022-10-13T10:05:01.393Z,25.8
2022-10-13T10:10:01.348Z,25.6
2022-10-13T10:15:01.988Z,24.8
2022-10-13T10:20:01.340Z,24.1
2022-10-13T10:25:01.453Z,24.7
2022-10-13T10:30:12.361Z,24.0
2022-10-13T10:35:01.655Z,23.5
2022-10-13T10:40:01.652Z,22.6
2022-10-13T10:45:04.549Z,22.6
2022-10-13T10:50:04.166Z,21.3
2022-10-13T10:55:01.517Z,21.6
2022-10-13T11:00:05.488Z,20.2
2022-10-13T11:05:11.922Z,20.7
2022-10-13T11:10:01.015Z,20.3
2022-10-13T11:15:07.960Z,20.5
2022-10-13T11:20:01.395Z,19.2
2022-10-13T11:25:01.477Z,18.8
2022-10-13T11:30:02.819Z,17.8
2022-10-13T11:35:18.049Z,17.6
2022-10-13T11:40:01.540Z,17.4
2022-10-13T11:45:11.581Z,17.1
2022-10-13T11:50:01.704Z,18.3
2022-10-13T11:56:01.960Z,19.3
2022-10-13T12:01:06.682Z,19.4
2022-10-13T12:06:01.602Z,19.2
2022-10-13T12:16:01.468Z,18.3
2022-10-13T12:21:01.667Z,16.9
2022-10-13T12:26:01.617Z,15.6
2022-10-13T12:31:01.607Z,14.7
2022-10-13T12:36:01.608Z,14.0
2022-10-13T12:41:01.637Z,13.4
2022-10-13T12:46:01.619Z,12.1
2022-10-13T12:51:17.047Z,12.1
2022-10-13T13:01:01.852Z,12.0
2022-10-13T13:06:06.746Z,12.1
2022-10-13T13:11:01.616Z,11.8
2022-10-13T13:16:01.575Z,11.9
2022-10-13T13:21:01.672Z,12.1
2022-10-13T13:26:01.636Z,12.2
2022-10-13T13:36:01.793Z,13.8
2022-10-13T13:41:04.803Z,14.2
2022-10-13T13:46:01.604Z,14.4
2022-10-13T13:51:01.635Z,14.5
2022-10-13T13:56:01.735Z,14.2
2022-10-13T14:01:01.705Z,14.2
2022-10-13T14:06:01.638Z,14.4
2022-10-13T14:11:01.629Z,14.6
2022-10-13T14:16:02.685Z,14.9
2022-10-13T14:21:01.633Z,14.1
2022-10-13T14:26:01.704Z,14.8
2022-10-13T14:31:01.609Z,14.0
2022-10-13T14:36:01.620Z,13.8
2022-10-13T14:41:03.342Z,13.8
2022-10-13T14:46:01.621Z,14.7
2022-10-13T14:51:01.616Z,14.6
2022-10-13T14:56:01.634Z,15.2
2022-10-13T15:06:01.708Z,15.5
2022-10-13T15:11:01.634Z,14.8
2022-10-13T15:16:01.639Z,15.0
2022-10-13T15:21:01.605Z,15.4
2022-10-13T15:26:02.625Z,15.8
2022-10-13T15:31:01.609Z,15.9
2022-10-13T15:36:01.625Z,16.6
2022-10-13T15:41:01.644Z,16.9
2022-10-13T15:46:03.972Z,15.9
2022-10-13T15:51:01.613Z,16.1
2022-10-13T15:56:02.048Z,15.4
2022-10-13T16:01:06.717Z,16.3
2022-10-13T16:06:01.643Z,15.7
2022-10-13T16:11:01.644Z,16.6
2022-10-13T16:16:01.638Z,17.0
2022-10-13T16:21:18.448Z,19.8
2022-10-13T16:26:01.611Z,20.3
2022-10-13T16:31:01.631Z,21.8
2022-10-13T16:36:01.632Z,22.5
2022-10-13T16:42:01.805Z,23.8
2022-10-13T16:47:02.317Z,22.9
2022-10-13T16:52:01.608Z,24.0
2022-10-13T16:57:01.640Z,25.1
2022-10-13T17:02:01.798Z,26.2
2022-10-13T17:07:02.140Z,26.0
2022-10-13T17:17:01.590Z,25.4
2022-10-13T17:22:02.377Z,24.8
2022-10-13T17:27:01.629Z,25.3
2022-10-13T17:32:01.614Z,26.2
2022-10-13T17:37:02.933Z,27.6
2022-10-13T17:42:01.709Z,27.7
2022-10-13T17:47:01.598Z,27.6
2022-10-13T17:52:02.033Z,27.1
2022-10-13T17:57:02.152Z,25.9
2022-10-13T18:02:03.011Z,25.7
2022-10-13T18:07:01.653Z,26.6
2022-10-13T18:12:01.624Z,28.0
2022-10-13T18:17:02.247Z,28.8
2022-10-13T18:22:01.722Z,30.2
2022-10-13T18:27:01.621Z,30.0
2022-10-13T18:37:01.680Z,30.4
2022-10-13T18:42:01.717Z,30.5
2022-10-13T18:47:01.618Z,30.1
2022-10-13T18:52:02.107Z,30.6
2022-10-13T19:02:01.762Z,28.8
2022-10-13T19:07:01.709Z,27.8
2022-10-13T19:12:01.923Z,27.8
2022-10-13T19:17:03.071Z,26.9
2022-10-13T19:22:01.712Z,26.8
2022-10-13T19:27:01.684Z,27.6
2022-10-13T19:32:02.040Z,28.4
2022-10-13T19:42:02.273Z,29.7
2022-10-13T19:47:01.991Z,29.5
2022-10-13T19:52:01.621Z,29.9
2022-10-13T19:57:01.627Z,28.5
2022-10-13T20:02:01.706Z,29.0
2022-10-13T20:07:01.620Z,28.5
2022-10-13T20:12:01.715Z,28.3
2022-10-13T20:17:01.632Z,28.0
2022-10-13T20:22:01.710Z,29.6
2022-10-13T20:27:01.637Z,28.8
2022-10-13T20:32:01.602Z,28.5
2022-10-13T20:37:01.620Z,28.7
2022-10-13T20:42:01.713Z,28.2
2022-10-13T20:47:01.607Z,28.2
2022-10-13T20:52:01.607Z,28.4
2022-10-13T20:57:01.622Z,27.1
2022-10-13T21:02:01.821Z,27.2
2022-10-13T21:07:01.611Z,28.0
2022-10-13T21:12:01.614Z,28.5
2022-10-13T21:17:01.582Z,28.9
2022-10-13T21:22:02.250Z,30.2
2022-10-13T21:27:02.335Z,29.9
2022-10-13T21:32:01.618Z,28.7
2022-10-13T21:37:01.601Z,27.3
2022-10-13T21:42:01.708Z,27.4
2022-10-13T21:47:01.619Z,28.2
2022-10-13T21:52:01.607Z,27.4
2022-10-13T21:57:01.611Z,28.0
2022-10-13T22:02:01.707Z,28.2
2022-10-13T22:12:01.788Z,27.6
2022-10-13T22:17:01.618Z,29.0
2022-10-13T22:22:01.750Z,29.3
2022-10-13T22:27:01.635Z,30.2
2022-10-13T22:32:01.646Z,30.0
2022-10-13T22:37:01.618Z,30.4
2022-10-13T22:42:01.706Z,29.9
2022-10-13T22:47:01.618Z,30.1
2022-10-13T22:52:01.799Z,29.4
2022-10-13T23:02:01.741Z,29.4
2022-10-13T23:07:01.641Z,29.8
2022-10-13T23:12:01.636Z,30.4
2022-10-13T23:17:01.523Z,30.6
2022-10-13T23:22:01.780Z,30.4
2022-10-13T23:27:01.615Z,30.8
2022-10-13T23:32:07.500Z,30.7
2022-10-13T23:37:01.608Z,30.0
2022-10-13T23:42:01.794Z,30.4
2022-10-13T23:47:01.613Z,30.8
2022-10-13T23:52:01.739Z,30.8
2022-10-13T23:57:01.624Z,32.0
